createdAt,value
2019-06-01T00:01:07.250Z,-83
2019-06-01T00:03:40.258Z,-85
2019-06-01T00:06:16.699Z,-87
2019-06-01T00:08:49.305Z,-85
2019-06-01T00:11:21.235Z,-84
2019-06-01T00:13:53.451Z,-83
2019-06-01T00:16:25.672Z,-84
2019-06-01T00:19:00.505Z,-86
2019-06-01T00:21:32.416Z,-83
2019-06-01T00:24:05.093Z,-84
2019-06-01T00:26:37.578Z,-85
2019-06-01T00:29:09.444Z,-85
2019-06-01T00:31:42.955Z,-84
2019-06-01T00:34:15.382Z,-83
2019-06-01T00:36:47.806Z,-84
2019-06-01T00:39:20.135Z,-83
2019-06-01T00:41:52.629Z,-84
2019-06-01T00:44:25.068Z,-83
2019-06-01T00:46:57.163Z,-84
2019-06-01T00:49:30.017Z,-85
2019-06-01T00:52:02.015Z,-86
2019-06-01T00:54:34.208Z,-85
2019-06-01T00:57:06.819Z,-84
2019-06-01T00:59:39.076Z,-85
2019-06-01T01:02:10.920Z,-83
2019-06-01T01:04:44.163Z,-83
2019-06-01T01:07:18.931Z,-83
2019-06-01T01:09:51.486Z,-83
2019-06-01T01:12:23.713Z,-83
2019-06-01T01:14:55.858Z,-82
2019-06-01T01:17:27.697Z,-83
2019-06-01T01:19:59.635Z,-83
2019-06-01T01:22:31.968Z,-82
2019-06-01T01:25:05.039Z,-82
2019-06-01T01:27:36.963Z,-83
2019-06-01T01:30:09.180Z,-83
2019-06-01T01:32:41.295Z,-84
2019-06-01T01:35:13.555Z,-82
2019-06-01T01:37:45.746Z,-82
2019-06-01T01:40:17.665Z,-86
2019-06-01T01:42:50.570Z,-86
2019-06-01T01:45:22.642Z,-87
2019-06-01T01:47:55.072Z,-85
2019-06-01T01:50:27.995Z,-85
2019-06-01T01:53:00.232Z,-87
2019-06-01T01:55:32.397Z,-87
2019-06-01T01:58:04.441Z,-85
2019-06-01T02:00:46.957Z,-86
2019-06-01T02:03:18.811Z,-84
2019-06-01T02:05:51.154Z,-85
2019-06-01T02:08:23.050Z,-87
2019-06-01T02:10:55.434Z,-85
2019-06-01T02:13:27.259Z,-86
2019-06-01T02:16:00.543Z,-84
2019-06-01T02:18:33.077Z,-85
2019-06-01T02:21:05.071Z,-86
2019-06-01T02:23:37.255Z,-85
2019-06-01T02:26:09.594Z,-85
2019-06-01T02:28:41.442Z,-85
2019-06-01T02:31:13.343Z,-86
2019-06-01T02:33:45.196Z,-86
2019-06-01T02:36:17.078Z,-85
2019-06-01T02:38:48.930Z,-85
2019-06-01T02:41:21.231Z,-85
2019-06-01T02:43:54.751Z,-84
2019-06-01T02:46:27.423Z,-84
2019-06-01T02:49:01.910Z,-85
2019-06-01T02:51:34.097Z,-85
2019-06-01T02:54:07.034Z,-84
2019-06-01T02:56:39.188Z,-86
2019-06-01T02:59:11.320Z,-84
2019-06-01T03:01:56.009Z,-85
2019-06-01T03:04:17.121Z,-85
2019-06-01T03:06:50.220Z,-84
2019-06-01T03:09:23.857Z,-84
2019-06-01T03:12:00.344Z,-85
2019-06-01T03:14:34.679Z,-86
2019-06-01T03:17:07.892Z,-85
2019-06-01T03:19:41.784Z,-85
2019-06-01T03:22:16.250Z,-85
2019-06-01T03:24:48.568Z,-84
2019-06-01T03:27:23.189Z,-86
2019-06-01T03:29:57.433Z,-86
2019-06-01T03:32:36.909Z,-85
2019-06-01T03:35:03.213Z,-85
2019-06-01T03:37:35.883Z,-86
2019-06-01T03:40:15.820Z,-84
2019-06-01T03:42:42.071Z,-84
2019-06-01T03:45:14.149Z,-84
2019-06-01T03:47:46.077Z,-85
2019-06-01T03:50:18.321Z,-86
2019-06-01T03:52:50.187Z,-85
2019-06-01T03:55:22.345Z,-84
2019-06-01T03:57:54.703Z,-83
2019-06-01T04:00:26.857Z,-83
2019-06-01T04:02:58.777Z,-85
2019-06-01T04:05:30.641Z,-84
2019-06-01T04:08:03.470Z,-84
2019-06-01T04:10:35.590Z,-84
2019-06-01T04:13:07.599Z,-84
2019-06-01T04:15:39.495Z,-84
2019-06-01T04:18:13.879Z,-86
2019-06-01T04:20:45.320Z,-84
2019-06-01T04:23:17.202Z,-85
2019-06-01T04:25:49.046Z,-85
2019-06-01T04:28:21.472Z,-85
2019-06-01T04:30:53.607Z,-85
2019-06-01T04:33:25.494Z,-85
2019-06-01T04:35:57.325Z,-84
2019-06-01T04:38:29.217Z,-87
2019-06-01T04:41:01.396Z,-85
2019-06-01T04:43:33.598Z,-87
2019-06-01T04:46:06.149Z,-86
2019-06-01T04:48:38.470Z,-88
2019-06-01T04:51:12.144Z,-86
2019-06-01T04:53:44.751Z,-86
2019-06-01T04:56:16.578Z,-86
2019-06-01T04:58:48.995Z,-85
2019-06-01T05:01:21.434Z,-85
2019-06-01T05:03:54.459Z,-84
2019-06-01T05:06:26.313Z,-85
2019-06-01T05:08:58.564Z,-85
2019-06-01T05:11:30.952Z,-85
2019-06-01T05:14:03.367Z,-86
2019-06-01T05:16:35.588Z,-85
2019-06-01T05:19:08.060Z,-84
2019-06-01T05:21:40.235Z,-85
2019-06-01T05:24:12.715Z,-87
2019-06-01T05:26:44.889Z,-85
2019-06-01T05:29:18.132Z,-88
2019-06-01T05:31:50.277Z,-86
2019-06-01T05:34:22.333Z,-87
2019-06-01T05:36:54.476Z,-86
2019-06-01T05:39:26.385Z,-87
2019-06-01T05:41:58.530Z,-86
2019-06-01T05:44:31.319Z,-87
2019-06-01T05:47:03.500Z,-86
2019-06-01T05:49:35.755Z,-86
2019-06-01T05:52:08.093Z,-86
2019-06-01T05:54:40.257Z,-87
2019-06-01T05:57:12.886Z,-87
2019-06-01T05:59:45.069Z,-86
2019-06-01T06:02:17.523Z,-86
2019-06-01T06:04:49.675Z,-87
2019-06-01T06:07:21.394Z,-87
2019-06-01T06:09:53.544Z,-87
2019-06-01T06:12:25.473Z,-89
2019-06-01T06:14:57.656Z,-87
2019-06-01T06:17:29.545Z,-86
2019-06-01T06:20:02.436Z,-85
2019-06-01T06:22:34.838Z,-86
2019-06-01T06:25:07.354Z,-87
2019-06-01T06:27:39.277Z,-87
2019-06-01T06:30:12.732Z,-87
2019-06-01T06:32:44.782Z,-88
2019-06-01T06:35:17.402Z,-87
2019-06-01T06:37:50.054Z,-85
2019-06-01T06:40:24.342Z,-86
2019-06-01T06:42:56.474Z,-83
2019-06-01T06:45:29.418Z,-82
2019-06-01T06:48:01.561Z,-84
2019-06-01T06:50:34.180Z,-82
2019-06-01T06:53:06.294Z,-83
2019-06-01T06:55:39.797Z,-84
2019-06-01T06:58:11.587Z,-84
2019-06-01T07:00:43.518Z,-83
2019-06-01T07:03:16.805Z,-83
2019-06-01T07:05:48.922Z,-84
2019-06-01T07:08:21.761Z,-84
2019-06-01T07:10:53.870Z,-84
2019-06-01T07:13:26.031Z,-84
2019-06-01T07:15:58.213Z,-84
2019-06-01T07:18:33.136Z,-83
2019-06-01T07:21:08.136Z,-84
2019-06-01T07:23:40.403Z,-84
2019-06-01T07:26:12.604Z,-83
2019-06-01T07:28:46.122Z,-83
2019-06-01T07:31:20.105Z,-84
2019-06-01T07:33:53.113Z,-83
2019-06-01T07:36:26.977Z,-82
2019-06-01T07:39:00.003Z,-85
2019-06-01T07:41:33.037Z,-85
2019-06-01T07:44:05.331Z,-85
2019-06-01T07:46:37.327Z,-84
2019-06-01T07:49:09.534Z,-83
2019-06-01T07:51:42.136Z,-83
2019-06-01T07:54:14.067Z,-83
2019-06-01T07:56:46.304Z,-83
2019-06-01T07:59:18.552Z,-83
2019-06-01T08:01:51.025Z,-83
2019-06-01T08:04:24.705Z,-85
2019-06-01T08:06:57.528Z,-86
2019-06-01T08:09:29.851Z,-87
2019-06-01T08:12:02.529Z,-89
2019-06-01T08:14:34.635Z,-87
2019-06-01T08:17:06.782Z,-88
2019-06-01T08:19:38.898Z,-87
2019-06-01T08:22:12.597Z,-87
2019-06-01T08:24:44.529Z,-87
2019-06-01T08:27:16.434Z,-87
2019-06-01T08:29:48.673Z,-86
2019-06-01T08:32:22.610Z,-86
2019-06-01T08:35:07.941Z,-85
2019-06-01T08:37:29.843Z,-84
2019-06-01T08:40:02.124Z,-87
2019-06-01T08:42:34.088Z,-86
2019-06-01T08:45:06.709Z,-86
2019-06-01T08:47:39.112Z,-86
2019-06-01T08:50:11.753Z,-87
2019-06-01T08:52:43.759Z,-90
2019-06-01T08:55:17.414Z,-89
2019-06-01T08:57:49.434Z,-89
2019-06-01T09:00:21.246Z,-87
2019-06-01T09:02:53.115Z,-87
2019-06-01T09:05:26.787Z,-88
2019-06-01T09:07:58.862Z,-88
2019-06-01T09:10:31.434Z,-88
2019-06-01T09:13:03.516Z,-87
2019-06-01T09:15:36.244Z,-88
2019-06-01T09:18:08.121Z,-87
2019-06-01T09:20:40.624Z,-89
2019-06-01T09:23:13.286Z,-87
2019-06-01T09:25:45.527Z,-84
2019-06-01T09:28:17.458Z,-87
2019-06-01T09:30:49.286Z,-87
2019-06-01T09:33:21.871Z,-86
2019-06-01T09:35:56.541Z,-86
2019-06-01T09:38:31.595Z,-88
2019-06-01T09:41:05.044Z,-88
2019-06-01T09:43:37.517Z,-87
2019-06-01T09:46:09.679Z,-86
2019-06-01T09:48:41.587Z,-86
2019-06-01T09:51:13.909Z,-87
2019-06-01T09:53:45.806Z,-88
2019-06-01T09:56:17.972Z,-89
2019-06-01T09:58:50.163Z,-88
2019-06-01T10:01:22.802Z,-86
2019-06-01T10:03:55.242Z,-86
2019-06-01T10:06:28.371Z,-88
2019-06-01T10:09:00.638Z,-84
2019-06-01T10:11:34.227Z,-84
2019-06-01T10:14:06.681Z,-84
2019-06-01T10:16:39.040Z,-84
2019-06-01T10:19:11.518Z,-86
2019-06-01T10:21:43.861Z,-88
2019-06-01T10:24:16.153Z,-86
2019-06-01T10:26:48.041Z,-83
2019-06-01T10:29:20.680Z,-85
2019-06-01T10:31:52.554Z,-85
2019-06-01T10:34:24.981Z,-85
2019-06-01T10:36:58.209Z,-86
2019-06-01T10:39:31.223Z,-86
2019-06-01T10:42:03.574Z,-87
2019-06-01T10:44:41.388Z,-86
2019-06-01T10:47:09.858Z,-85
2019-06-01T10:49:42.466Z,-85
2019-06-01T10:52:14.566Z,-84
2019-06-01T10:54:46.869Z,-84
2019-06-01T10:57:18.697Z,-86
2019-06-01T10:59:52.189Z,-86
2019-06-01T11:02:24.702Z,-87
2019-06-01T11:04:56.585Z,-87
2019-06-01T11:07:29.035Z,-87
2019-06-01T11:10:01.019Z,-85
2019-06-01T11:12:33.121Z,-85
2019-06-01T11:15:05.525Z,-85
2019-06-01T11:17:37.385Z,-84
2019-06-01T11:20:10.007Z,-85
2019-06-01T11:22:43.737Z,-86
2019-06-01T11:25:15.638Z,-86
2019-06-01T11:27:47.522Z,-85
2019-06-01T11:30:21.608Z,-86
2019-06-01T11:32:54.093Z,-86
2019-06-01T11:35:26.529Z,-85
2019-06-01T11:37:58.831Z,-87
2019-06-01T11:40:32.024Z,-87
2019-06-01T11:43:05.007Z,-85
2019-06-01T11:45:37.168Z,-86
2019-06-01T11:48:09.566Z,-87
2019-06-01T11:50:43.010Z,-87
2019-06-01T11:53:15.720Z,-87
2019-06-01T11:55:48.195Z,-87
2019-06-01T11:58:20.057Z,-87
2019-06-01T12:00:51.933Z,-87
2019-06-01T12:03:24.087Z,-87
2019-06-01T12:05:56.766Z,-86
2019-06-01T12:08:33.796Z,-87
2019-06-01T12:11:03.526Z,-87
2019-06-01T12:13:36.029Z,-87
2019-06-01T12:16:08.228Z,-86
2019-06-01T12:18:40.610Z,-86
2019-06-01T12:21:12.797Z,-85
2019-06-01T12:23:45.693Z,-87
2019-06-01T12:26:20.624Z,-86
2019-06-01T12:28:52.743Z,-85
2019-06-01T12:31:25.216Z,-85
2019-06-01T12:33:57.477Z,-85
2019-06-01T12:36:29.888Z,-85
2019-06-01T12:39:01.723Z,-85
2019-06-01T12:41:33.690Z,-86
2019-06-01T12:44:15.818Z,-85
2019-06-01T12:46:49.007Z,-85
2019-06-01T12:49:21.085Z,-85
2019-06-01T12:51:53.403Z,-86
2019-06-01T12:54:25.308Z,-85
2019-06-01T12:56:57.509Z,-85
2019-06-01T12:59:29.345Z,-86
2019-06-01T13:02:01.619Z,-85
2019-06-01T13:04:34.248Z,-87
2019-06-01T13:07:06.882Z,-86
2019-06-01T13:09:39.325Z,-86
2019-06-01T13:12:11.157Z,-88
2019-06-01T13:14:43.386Z,-87
2019-06-01T13:17:15.872Z,-89
2019-06-01T13:19:48.008Z,-88
2019-06-01T13:22:20.934Z,-88
2019-06-01T13:24:53.263Z,-87
2019-06-01T13:27:25.255Z,-88
2019-06-01T13:29:57.569Z,-88
2019-06-01T13:32:29.731Z,-88
2019-06-01T13:35:02.117Z,-87
2019-06-01T13:37:34.333Z,-88
2019-06-01T13:40:06.322Z,-90
2019-06-01T13:42:38.209Z,-87
2019-06-01T13:45:10.387Z,-88
2019-06-01T13:47:43.421Z,-88
2019-06-01T13:50:16.011Z,-89
2019-06-01T13:52:48.092Z,-87
2019-06-01T13:55:19.920Z,-89
2019-06-01T13:57:52.460Z,-89
2019-06-01T14:00:30.225Z,-89
2019-06-01T14:02:58.717Z,-85
2019-06-01T14:05:31.352Z,-83
2019-06-01T14:08:04.038Z,-86
2019-06-01T14:10:35.913Z,-85
2019-06-01T14:13:07.792Z,-86
2019-06-01T14:15:39.629Z,-87
2019-06-01T14:18:12.241Z,-86
2019-06-01T14:20:45.513Z,-84
2019-06-01T14:23:18.185Z,-87
2019-06-01T14:25:50.238Z,-86
2019-06-01T14:28:22.360Z,-86
2019-06-01T14:30:54.385Z,-85
2019-06-01T14:33:26.489Z,-86
2019-06-01T14:35:58.659Z,-85
2019-06-01T14:38:45.978Z,-84
2019-06-01T14:41:04.206Z,-86
2019-06-01T14:43:36.531Z,-87
2019-06-01T14:46:08.773Z,-84
2019-06-01T14:48:41.282Z,-84
2019-06-01T14:51:14.077Z,-82
2019-06-01T14:53:47.510Z,-86
2019-06-01T14:56:19.614Z,-85
2019-06-01T14:58:51.972Z,-85
2019-06-01T15:01:32.606Z,-84
2019-06-01T15:03:58.407Z,-84
2019-06-01T15:06:31.296Z,-83
2019-06-01T15:09:17.953Z,-82
2019-06-01T15:11:37.247Z,-83
2019-06-01T15:14:09.431Z,-85
2019-06-01T15:16:41.543Z,-85
2019-06-01T15:19:15.058Z,-85
2019-06-01T15:21:47.055Z,-85
2019-06-01T15:24:19.236Z,-86
2019-06-01T15:26:52.450Z,-85
2019-06-01T15:29:24.960Z,-84
2019-06-01T15:31:58.043Z,-87
2019-06-01T15:34:30.191Z,-87
2019-06-01T15:37:02.400Z,-84
2019-06-01T15:39:34.746Z,-85
2019-06-01T15:42:06.682Z,-86
2019-06-01T15:44:38.605Z,-86
2019-06-01T15:47:11.564Z,-85
2019-06-01T15:49:44.072Z,-87
2019-06-01T15:52:16.079Z,-86
2019-06-01T15:54:49.615Z,-85
2019-06-01T15:57:22.051Z,-85
2019-06-01T15:59:54.560Z,-84
2019-06-01T16:02:27.255Z,-85
2019-06-01T16:05:01.295Z,-84
2019-06-01T16:07:33.322Z,-83
2019-06-01T16:10:08.032Z,-83
2019-06-01T16:12:39.178Z,-84
2019-06-01T16:15:11.253Z,-84
2019-06-01T16:17:43.508Z,-84
2019-06-01T16:20:16.786Z,-84
2019-06-01T16:22:49.137Z,-83
2019-06-01T16:25:21.671Z,-84
2019-06-01T16:27:54.589Z,-84
2019-06-01T16:30:26.934Z,-83
2019-06-01T16:32:58.816Z,-83
2019-06-01T16:35:30.849Z,-83
2019-06-01T16:38:04.070Z,-84
2019-06-01T16:40:37.047Z,-85
2019-06-01T16:43:09.733Z,-83
2019-06-01T16:45:42.320Z,-83
2019-06-01T16:48:14.822Z,-83
2019-06-01T16:50:47.515Z,-83
2019-06-01T16:53:19.953Z,-83
2019-06-01T16:55:52.258Z,-83
2019-06-01T16:58:24.641Z,-84
2019-06-01T17:00:58.518Z,-83
2019-06-01T17:03:30.731Z,-83
2019-06-01T17:06:03.258Z,-82
2019-06-01T17:08:35.108Z,-82
2019-06-01T17:11:07.539Z,-84
2019-06-01T17:13:39.885Z,-84
2019-06-01T17:16:11.800Z,-83
2019-06-01T17:18:43.936Z,-84
2019-06-01T17:21:15.885Z,-83
2019-06-01T17:23:48.114Z,-83
2019-06-01T17:26:20.740Z,-84
2019-06-01T17:28:53.028Z,-84
2019-06-01T17:31:25.248Z,-83
2019-06-01T17:33:58.332Z,-84
2019-06-01T17:36:31.345Z,-84
2019-06-01T17:39:03.934Z,-83
2019-06-01T17:41:36.231Z,-84
2019-06-01T17:44:09.005Z,-86
2019-06-01T17:46:52.918Z,-85
2019-06-01T17:49:14.861Z,-85
2019-06-01T17:51:48.565Z,-85
2019-06-01T17:54:20.427Z,-84
2019-06-01T17:56:52.407Z,-84
2019-06-01T17:59:24.871Z,-84
2019-06-01T18:01:57.061Z,-83
2019-06-01T18:04:28.994Z,-82
2019-06-01T18:07:01.766Z,-82
2019-06-01T18:09:34.053Z,-82
2019-06-01T18:12:06.233Z,-83
2019-06-01T18:14:38.817Z,-83
2019-06-01T18:17:12.160Z,-82
2019-06-01T18:19:44.846Z,-82
2019-06-01T18:22:17.754Z,-83
2019-06-01T18:24:50.460Z,-82
2019-06-01T18:27:23.208Z,-82
2019-06-01T18:29:56.506Z,-81
2019-06-01T18:32:28.699Z,-81
2019-06-01T18:35:01.222Z,-81
2019-06-01T18:37:33.574Z,-80
2019-06-01T18:40:05.679Z,-80
2019-06-01T18:42:39.491Z,-81
2019-06-01T18:45:13.550Z,-82
2019-06-01T18:47:46.453Z,-83
2019-06-01T18:50:18.595Z,-83
2019-06-01T18:52:51.129Z,-83
2019-06-01T18:55:23.057Z,-82
2019-06-01T18:57:57.445Z,-82
2019-06-01T19:00:29.434Z,-82
2019-06-01T19:03:02.072Z,-84
2019-06-01T19:05:34.602Z,-83
2019-06-01T19:08:07.158Z,-83
2019-06-01T19:10:39.672Z,-82
2019-06-01T19:13:12.340Z,-83
2019-06-01T19:15:44.235Z,-82
2019-06-01T19:18:17.092Z,-83
2019-06-01T19:20:49.795Z,-82
2019-06-01T19:23:23.033Z,-83
2019-06-01T19:25:55.407Z,-84
2019-06-01T19:28:27.682Z,-83
2019-06-01T19:30:59.556Z,-83
2019-06-01T19:33:31.355Z,-84
2019-06-01T19:36:03.600Z,-84
2019-06-01T19:38:35.851Z,-82
2019-06-01T19:41:07.699Z,-82
2019-06-01T19:43:40.013Z,-83
2019-06-01T19:46:12.165Z,-83
2019-06-01T19:48:44.817Z,-82
2019-06-01T19:51:18.691Z,-83
2019-06-01T19:53:51.546Z,-83
2019-06-01T19:56:23.976Z,-84
2019-06-01T19:58:55.949Z,-83
2019-06-01T20:01:27.956Z,-83
2019-06-01T20:04:00.227Z,-85
2019-06-01T20:06:32.364Z,-84
2019-06-01T20:09:05.320Z,-82
2019-06-01T20:11:37.123Z,-84
2019-06-01T20:14:10.193Z,-84
2019-06-01T20:16:42.590Z,-83
2019-06-01T20:19:17.809Z,-85
2019-06-01T20:21:50.357Z,-84
2019-06-01T20:24:23.053Z,-83
2019-06-01T20:26:55.185Z,-84
2019-06-01T20:29:27.689Z,-85
2019-06-01T20:32:00.361Z,-85
2019-06-01T20:34:32.744Z,-85
2019-06-01T20:37:05.312Z,-85
2019-06-01T20:39:37.500Z,-83
2019-06-01T20:42:20.688Z,-84
2019-06-01T20:44:43.917Z,-85
2019-06-01T20:47:16.684Z,-83
2019-06-01T20:49:50.201Z,-85
2019-06-01T20:52:23.302Z,-85
2019-06-01T20:54:58.257Z,-84
2019-06-01T20:57:30.612Z,-85
2019-06-01T21:00:02.811Z,-85
2019-06-01T21:02:34.670Z,-86
2019-06-01T21:05:07.098Z,-81
2019-06-01T21:07:39.628Z,-81
2019-06-01T21:10:14.027Z,-82
2019-06-01T21:12:46.409Z,-81
2019-06-01T21:15:19.292Z,-82
2019-06-01T21:17:51.679Z,-82
2019-06-01T21:20:28.271Z,-83
2019-06-01T21:22:57.327Z,-82
2019-06-01T21:25:29.218Z,-81
2019-06-01T21:28:01.210Z,-83
2019-06-01T21:30:33.381Z,-81
2019-06-01T21:33:05.246Z,-82
2019-06-01T21:35:37.756Z,-81
2019-06-01T21:38:09.971Z,-82
2019-06-01T21:40:42.065Z,-82
2019-06-01T21:43:28.626Z,-82
2019-06-01T21:45:48.142Z,-84
2019-06-01T21:48:20.023Z,-81
2019-06-01T21:50:51.926Z,-83
2019-06-01T21:53:24.633Z,-82
2019-06-01T21:55:57.403Z,-81
2019-06-01T21:58:45.063Z,-83
2019-06-01T22:01:18.454Z,-83
2019-06-01T22:03:50.692Z,-83
2019-06-01T22:06:23.404Z,-83
2019-06-01T22:08:55.789Z,-83
2019-06-01T22:11:28.559Z,-83
2019-06-01T22:14:00.461Z,-84
2019-06-01T22:16:34.060Z,-83
2019-06-01T22:19:11.097Z,-83
2019-06-01T22:21:43.387Z,-83
2019-06-01T22:24:17.708Z,-83
2019-06-01T22:26:50.528Z,-83
2019-06-01T22:29:22.670Z,-83
2019-06-01T22:31:55.185Z,-83
2019-06-01T22:34:27.347Z,-83
2019-06-01T22:36:59.243Z,-83
2019-06-01T22:39:31.365Z,-82
2019-06-01T22:42:03.585Z,-83
2019-06-01T22:44:35.459Z,-83
2019-06-01T22:47:07.789Z,-83
2019-06-01T22:49:39.652Z,-83
2019-06-01T22:52:11.853Z,-83
2019-06-01T22:54:44.018Z,-83
2019-06-01T22:57:16.296Z,-83
2019-06-01T22:59:48.446Z,-82
2019-06-01T23:02:21.512Z,-83
2019-06-01T23:04:54.099Z,-83
2019-06-01T23:07:27.276Z,-82
2019-06-01T23:09:59.684Z,-83
2019-06-01T23:12:31.886Z,-83
2019-06-01T23:15:03.775Z,-81
2019-06-01T23:17:35.952Z,-81
2019-06-01T23:20:08.557Z,-82
2019-06-01T23:22:40.717Z,-82
2019-06-01T23:25:12.636Z,-81
2019-06-01T23:27:44.531Z,-82
2019-06-01T23:30:16.655Z,-82
2019-06-01T23:32:48.828Z,-81
2019-06-01T23:35:22.284Z,-81
2019-06-01T23:37:54.745Z,-82
2019-06-01T23:40:27.194Z,-82
2019-06-01T23:42:59.076Z,-83
2019-06-01T23:45:31.218Z,-83
2019-06-01T23:48:04.540Z,-83
2019-06-01T23:50:36.807Z,-83
2019-06-01T23:53:13.696Z,-80
2019-06-01T23:55:44.279Z,-82
2019-06-01T23:58:16.737Z,-82
